This is the latest recevied weather packets stored in our database for station/object EA6AMR-10. If no packets are shown the sender has not sent any weather packets the latest 1 day(s).
| Time | Temp. | Humidity | Pressure | Rain* | Wind** | Luminosity | Snow |
|---|---|---|---|---|---|---|---|
| 1778057985 | 29.44° C | 52% | 1011.7 hPa | - | - | - | - |
| 1778057085 | 28.33° C | 53% | 1011.7 hPa | - | - | - | - |
| 1778054390 | 26.11° C | 53% | 1011.9 hPa | - | - | - | - |
| 1778053490 | 24.44° C | 53% | 1011.9 hPa | - | - | - | - |
| 1778052590 | 25° C | 52% | 1012 hPa | - | - | - | - |
| 1778050789 | 22.78° C | 51% | 1011.9 hPa | - | - | - | - |
| 1778049889 | 19.44° C | 54% | 1012 hPa | - | - | - | - |
| 1778048989 | 16.67° C | 58% | 1012.2 hPa | - | - | - | - |
| 1778048089 | 15° C | 60% | 1012.2 hPa | - | - | - | - |
| 1778046288 | 13.89° C | 61% | 1012 hPa | - | - | - | - |
| 1778045388 | 14.44° C | 60% | 1011.8 hPa | - | - | - | - |
| 1778044488 | 13.89° C | 61% | 1011.7 hPa | - | - | - | - |
| 1778043588 | 13.33° C | 62% | 1011.5 hPa | - | - | - | - |
| 1778040887 | 12.78° C | 62% | 1011.1 hPa | - | - | - | - |
| 1778039987 | 12.78° C | 62% | 1011.1 hPa | - | - | - | - |
| 1778039087 | 13.33° C | 62% | 1011.1 hPa | - | - | - | - |
| 1778037286 | 13.33° C | 61% | 1010.9 hPa | - | - | - | - |
| 1778036385 | 13.89° C | 62% | 1010.9 hPa | - | - | - | - |
| 1778034588 | 13.89° C | 61% | 1010.7 hPa | - | - | - | - |
| 1778033688 | 13.89° C | 61% | 1010.7 hPa | - | - | - | - |
| 1778032788 | 14.44° C | 61% | 1010.8 hPa | - | - | - | - |
| 1778031888 | 14.44° C | 61% | 1011 hPa | - | - | - | - |
| 1778030987 | 14.44° C | 61% | 1011 hPa | - | - | - | - |
| 1778030087 | 14.44° C | 61% | 1010.9 hPa | - | - | - | - |
| 1778029187 | 15° C | 61% | 1011 hPa | - | - | - | - |
* Rain since midnight (hover to see other rain measurements)
** Current wind speed in m/s (hover to see current wind gust speed)